createdAt,value
2018-09-24T00:00:18.529Z,18.40
2018-09-24T00:02:47.283Z,18.40
2018-09-24T00:05:16.119Z,18.30
2018-09-24T00:07:45.007Z,18.40
2018-09-24T00:10:13.800Z,18.30
2018-09-24T00:12:42.628Z,18.40
2018-09-24T00:15:11.437Z,18.50
2018-09-24T00:17:40.291Z,18.40
2018-09-24T00:20:09.115Z,18.40
2018-09-24T00:22:38.018Z,18.50
2018-09-24T00:25:06.595Z,18.50
2018-09-24T00:27:35.406Z,18.50
2018-09-24T00:30:04.294Z,18.50
2018-09-24T00:32:33.078Z,18.50
2018-09-24T00:35:01.983Z,18.50
2018-09-24T00:37:30.870Z,18.50
2018-09-24T00:39:59.639Z,18.50
2018-09-24T00:42:28.463Z,18.50
2018-09-24T00:44:57.269Z,18.50
2018-09-24T00:47:26.358Z,18.40
2018-09-24T00:49:55.166Z,18.30
2018-09-24T00:52:23.967Z,18.30
2018-09-24T00:54:52.775Z,18.40
2018-09-24T00:57:21.691Z,18.30
2018-09-24T00:59:50.603Z,18.30
2018-09-24T01:02:19.408Z,18.40
2018-09-24T01:04:48.326Z,18.10
2018-09-24T01:07:17.187Z,18.10
2018-09-24T01:09:46.008Z,18.30
2018-09-24T01:12:14.832Z,18.20
2018-09-24T01:14:43.609Z,18.30
2018-09-24T01:17:12.653Z,18.10
2018-09-24T01:19:41.431Z,17.90
2018-09-24T01:22:10.317Z,18.00
2018-09-24T01:24:39.089Z,17.90
2018-09-24T01:27:08.019Z,18.00
2018-09-24T01:29:36.818Z,18.10
2018-09-24T01:32:06.458Z,18.10
2018-09-24T01:34:35.346Z,18.20
2018-09-24T01:38:28.739Z,18.20
2018-09-24T01:40:57.675Z,18.10
2018-09-24T01:43:26.458Z,18.20
2018-09-24T01:45:55.315Z,18.10
2018-09-24T01:48:24.134Z,18.00
2018-09-24T01:50:52.931Z,18.10
2018-09-24T01:53:21.835Z,18.10
2018-09-24T01:55:51.835Z,18.20
2018-09-24T01:58:20.827Z,18.20
2018-09-24T02:00:49.657Z,18.20
2018-09-24T02:03:18.438Z,18.30
2018-09-24T02:05:47.347Z,18.40
2018-09-24T02:08:16.238Z,18.30
2018-09-24T02:10:45.057Z,18.30
2018-09-24T02:13:13.851Z,18.50
2018-09-24T02:15:42.643Z,18.50
2018-09-24T02:18:11.642Z,18.40
2018-09-24T02:20:47.223Z,18.50
2018-09-24T02:23:16.494Z,18.50
2018-09-24T02:25:45.375Z,18.50
2018-09-24T02:28:14.254Z,18.20
2018-09-24T02:30:43.089Z,18.00
2018-09-24T02:33:13.020Z,18.00
2018-09-24T02:35:48.123Z,18.20
2018-09-24T02:38:17.713Z,18.20
2018-09-24T02:40:46.507Z,18.20
2018-09-24T02:43:22.061Z,18.10
2018-09-24T02:45:51.667Z,18.00
2018-09-24T02:48:20.514Z,18.00
2018-09-24T02:50:49.304Z,18.10
2018-09-24T02:53:18.140Z,18.00
2018-09-24T02:55:47.090Z,18.10
2018-09-24T02:58:18.830Z,18.10
2018-09-24T03:00:47.816Z,18.10
2018-09-24T03:03:16.646Z,18.20
2018-09-24T03:05:45.430Z,18.20
2018-09-24T03:08:14.578Z,18.10
2018-09-24T03:10:43.399Z,18.00
2018-09-24T03:13:12.149Z,18.00
2018-09-24T03:15:41.703Z,18.00
2018-09-24T03:18:10.833Z,18.10
2018-09-24T03:20:43.819Z,18.00
2018-09-24T03:23:12.627Z,18.10
2018-09-24T03:25:41.439Z,18.10
2018-09-24T03:28:10.442Z,18.10
2018-09-24T03:30:41.462Z,18.00
2018-09-24T03:33:10.287Z,17.90
2018-09-24T03:35:39.065Z,17.70
2018-09-24T03:38:07.958Z,17.80
2018-09-24T03:40:36.747Z,17.80
2018-09-24T03:43:05.618Z,17.80
2018-09-24T03:45:34.433Z,17.90
2018-09-24T03:48:03.383Z,17.90
2018-09-24T03:50:32.189Z,18.00
2018-09-24T03:53:00.983Z,17.90
2018-09-24T03:55:29.775Z,17.90
2018-09-24T03:57:58.650Z,17.90
2018-09-24T04:00:33.491Z,17.90
2018-09-24T04:03:02.310Z,17.90
2018-09-24T04:05:36.818Z,17.90
2018-09-24T04:08:11.500Z,17.80
2018-09-24T04:10:45.945Z,17.70
2018-09-24T04:13:20.288Z,17.60
2018-09-24T04:15:54.666Z,17.60
2018-09-24T04:18:29.044Z,17.60
2018-09-24T04:21:03.507Z,17.60
2018-09-24T04:23:37.933Z,17.60
2018-09-24T04:26:12.596Z,17.60
2018-09-24T04:28:47.068Z,17.60
2018-09-24T04:31:21.439Z,17.50
2018-09-24T04:33:55.874Z,17.50
2018-09-24T04:36:31.513Z,17.30
2018-09-24T04:39:06.054Z,17.30
2018-09-24T04:41:40.591Z,17.30
2018-09-24T04:44:14.994Z,17.50
2018-09-24T04:46:49.520Z,17.30
2018-09-24T04:49:24.040Z,17.20
2018-09-24T04:51:58.812Z,17.20
2018-09-24T04:54:33.467Z,17.00
2018-09-24T04:57:08.103Z,16.90
2018-09-24T04:59:42.428Z,16.90
2018-09-24T05:02:16.876Z,16.70
2018-09-24T05:04:51.726Z,16.80
2018-09-24T05:07:26.448Z,16.70
2018-09-24T05:10:00.932Z,16.70
2018-09-24T05:12:35.456Z,16.90
2018-09-24T05:15:10.006Z,16.90
2018-09-24T05:17:45.132Z,17.00
2018-09-24T05:20:19.743Z,17.10
2018-09-24T05:22:54.190Z,17.30
2018-09-24T05:25:28.724Z,17.20
2018-09-24T05:28:03.362Z,17.30
2018-09-24T05:30:37.782Z,17.40
2018-09-24T05:33:12.490Z,17.50
2018-09-24T05:35:46.875Z,17.60
2018-09-24T05:38:21.855Z,17.60
2018-09-24T05:40:56.358Z,17.50
2018-09-24T05:43:30.864Z,17.40
2018-09-24T05:46:05.683Z,17.30
2018-09-24T05:48:40.534Z,17.10
2018-09-24T05:51:15.056Z,17.10
2018-09-24T05:53:49.769Z,17.10
2018-09-24T05:56:24.601Z,17.20
2018-09-24T05:58:58.947Z,17.30
2018-09-24T06:01:33.581Z,17.30
2018-09-24T06:04:08.199Z,17.30
2018-09-24T06:06:43.035Z,17.40
2018-09-24T06:09:17.590Z,17.50
2018-09-24T06:11:52.121Z,17.60
2018-09-24T06:14:26.543Z,17.50
2018-09-24T06:17:01.115Z,17.50
2018-09-24T06:19:35.573Z,17.40
2018-09-24T06:22:10.319Z,17.50
2018-09-24T06:24:44.981Z,17.50
2018-09-24T06:27:19.726Z,17.40
2018-09-24T06:29:54.296Z,17.40
2018-09-24T06:32:29.076Z,17.20
2018-09-24T06:35:03.483Z,17.20
2018-09-24T06:37:38.036Z,17.00
2018-09-24T06:40:12.719Z,16.90
2018-09-24T06:42:47.050Z,16.90
2018-09-24T06:45:21.480Z,17.00
2018-09-24T06:47:55.893Z,16.90
2018-09-24T06:50:30.296Z,16.80
2018-09-24T06:53:04.774Z,16.80
2018-09-24T06:55:39.396Z,16.90
2018-09-24T06:58:14.094Z,16.90
2018-09-24T07:00:48.567Z,16.90
2018-09-24T07:03:22.923Z,16.80
2018-09-24T07:05:58.223Z,16.80
2018-09-24T07:08:32.678Z,16.90
2018-09-24T07:11:07.368Z,16.80
2018-09-24T07:13:41.715Z,16.60
2018-09-24T07:16:16.263Z,16.60
2018-09-24T07:18:50.796Z,16.70
2018-09-24T07:21:25.274Z,16.70
2018-09-24T07:23:59.663Z,16.70
2018-09-24T07:26:34.274Z,16.60
2018-09-24T07:29:08.672Z,16.50
2018-09-24T07:31:43.155Z,16.30
2018-09-24T07:34:17.574Z,16.20
2018-09-24T07:36:52.069Z,16.30
2018-09-24T07:39:26.365Z,16.20
2018-09-24T07:42:00.746Z,16.30
2018-09-24T07:44:35.207Z,16.40
2018-09-24T07:47:09.715Z,16.30
2018-09-24T07:49:44.162Z,16.30
2018-09-24T07:52:18.676Z,16.50
2018-09-24T07:54:53.200Z,16.50
2018-09-24T07:57:27.744Z,16.50
2018-09-24T08:00:02.243Z,16.50
2018-09-24T08:02:36.674Z,16.40
2018-09-24T08:05:11.045Z,16.20
2018-09-24T08:07:45.570Z,16.20
2018-09-24T08:10:19.979Z,16.20
2018-09-24T08:12:54.470Z,16.10
2018-09-24T08:15:28.946Z,16.00
2018-09-24T08:18:03.823Z,16.10
2018-09-24T08:20:38.150Z,16.30
2018-09-24T08:23:14.980Z,16.20
2018-09-24T08:25:49.495Z,16.10
2018-09-24T08:28:24.163Z,16.10
2018-09-24T08:30:58.670Z,16.00
2018-09-24T08:33:33.007Z,16.20
2018-09-24T08:36:07.488Z,16.30
2018-09-24T08:38:42.337Z,16.40
2018-09-24T08:41:16.914Z,16.30
2018-09-24T08:43:51.420Z,16.10
2018-09-24T08:46:25.883Z,16.20
2018-09-24T08:49:00.598Z,16.20
2018-09-24T08:51:35.005Z,16.30
2018-09-24T08:54:09.455Z,16.20
2018-09-24T08:56:44.025Z,16.30
2018-09-24T08:59:23.381Z,16.20
2018-09-24T09:02:00.112Z,16.10
2018-09-24T09:04:34.378Z,16.20
2018-09-24T09:07:08.896Z,16.20
2018-09-24T09:09:43.476Z,16.10
2018-09-24T09:12:17.899Z,16.20
2018-09-24T09:14:52.280Z,16.40
2018-09-24T09:17:26.784Z,16.50
2018-09-24T09:20:01.346Z,16.40
2018-09-24T09:22:35.773Z,16.30
2018-09-24T09:25:10.711Z,16.10
2018-09-24T09:27:45.350Z,16.10
2018-09-24T09:30:19.853Z,16.10
2018-09-24T09:32:54.244Z,16.20
2018-09-24T09:35:28.718Z,16.20
2018-09-24T09:38:03.323Z,16.00
2018-09-24T09:40:37.936Z,16.00
2018-09-24T09:43:12.419Z,16.00
2018-09-24T09:45:47.091Z,16.20
2018-09-24T09:48:21.519Z,16.10
2018-09-24T09:50:55.998Z,16.10
2018-09-24T09:53:30.420Z,16.20
2018-09-24T09:56:04.939Z,16.20
2018-09-24T09:58:39.267Z,16.10
2018-09-24T10:01:14.048Z,16.10
2018-09-24T10:03:48.326Z,16.10
2018-09-24T10:06:22.826Z,16.20
2018-09-24T10:08:57.216Z,16.20
2018-09-24T10:11:31.547Z,16.30
2018-09-24T10:14:05.994Z,16.30
2018-09-24T10:16:40.567Z,16.50
2018-09-24T10:19:15.078Z,16.70
2018-09-24T10:21:49.687Z,16.80
2018-09-24T10:24:24.193Z,17.10
2018-09-24T10:26:58.724Z,17.30
2018-09-24T10:29:33.154Z,17.40
2018-09-24T10:32:07.882Z,17.50
2018-09-24T10:34:42.142Z,17.60
2018-09-24T10:37:16.720Z,17.60
2018-09-24T10:39:51.227Z,17.60
2018-09-24T10:42:25.878Z,17.60
2018-09-24T10:45:00.315Z,17.60
2018-09-24T10:47:34.762Z,17.70
2018-09-24T10:50:09.319Z,17.90
2018-09-24T10:52:43.957Z,18.00
2018-09-24T10:55:18.355Z,18.10
2018-09-24T10:57:53.232Z,18.00
2018-09-24T11:00:34.535Z,18.00
2018-09-24T11:03:09.325Z,18.10
2018-09-24T11:05:43.675Z,18.10
2018-09-24T11:08:18.050Z,18.30
2018-09-24T11:10:52.588Z,18.50
2018-09-24T11:13:27.079Z,18.70
2018-09-24T11:16:01.529Z,18.60
2018-09-24T11:18:36.063Z,19.00
2018-09-24T11:21:10.654Z,19.20
2018-09-24T11:23:45.201Z,19.30
2018-09-24T11:28:54.198Z,19.60
2018-09-24T11:31:28.603Z,19.60
2018-09-24T11:34:03.054Z,19.70
2018-09-24T11:36:37.436Z,19.90
2018-09-24T11:39:14.071Z,20.10
2018-09-24T11:41:48.690Z,20.40
2018-09-24T11:44:23.588Z,20.50
2018-09-24T11:46:58.126Z,20.60
2018-09-24T11:49:32.791Z,20.80
2018-09-24T11:52:07.174Z,21.00
2018-09-24T11:54:41.784Z,21.20
2018-09-24T11:57:16.330Z,21.30
2018-09-24T11:59:50.697Z,21.50
2018-09-24T12:02:25.093Z,21.70
2018-09-24T12:04:59.586Z,22.00
2018-09-24T12:07:33.970Z,22.30
2018-09-24T12:10:08.535Z,22.50
2018-09-24T12:12:43.008Z,22.80
2018-09-24T12:15:17.595Z,22.90
2018-09-24T12:17:52.295Z,22.80
2018-09-24T12:20:27.712Z,22.70
2018-09-24T12:23:02.043Z,22.60
2018-09-24T12:25:36.619Z,22.50
2018-09-24T12:28:11.162Z,22.40
2018-09-24T12:30:45.546Z,22.30
2018-09-24T12:33:19.957Z,22.00
2018-09-24T12:35:54.802Z,21.60
2018-09-24T12:38:29.306Z,21.50
2018-09-24T12:41:03.731Z,21.10
2018-09-24T12:43:38.168Z,20.90
2018-09-24T12:46:12.798Z,20.80
2018-09-24T12:48:47.285Z,20.90
2018-09-24T12:51:21.943Z,20.90
2018-09-24T12:53:56.447Z,20.80
2018-09-24T12:56:31.154Z,20.70
2018-09-24T12:59:05.707Z,20.80
2018-09-24T13:01:40.223Z,21.10
2018-09-24T13:04:14.670Z,21.20
2018-09-24T13:06:49.210Z,21.20
2018-09-24T13:09:23.775Z,21.10
2018-09-24T13:11:58.224Z,21.20
2018-09-24T13:14:32.564Z,21.40
2018-09-24T13:17:07.018Z,21.70
2018-09-24T13:19:41.351Z,21.70
2018-09-24T13:22:15.822Z,21.90
2018-09-24T13:24:50.310Z,21.80
2018-09-24T13:27:24.682Z,21.50
2018-09-24T13:30:05.993Z,21.50
2018-09-24T13:32:40.810Z,21.40
2018-09-24T13:35:15.182Z,21.40
2018-09-24T13:37:49.710Z,21.30
2018-09-24T13:40:24.147Z,21.10
2018-09-24T13:42:58.670Z,21.20
2018-09-24T13:45:33.095Z,21.30
2018-09-24T13:48:07.722Z,21.30
2018-09-24T13:50:42.091Z,21.10
2018-09-24T13:53:16.550Z,20.90
2018-09-24T13:55:51.029Z,20.60
2018-09-24T13:58:25.507Z,20.30
2018-09-24T14:00:59.907Z,20.10
2018-09-24T14:03:34.510Z,20.00
2018-09-24T14:06:09.014Z,19.90
2018-09-24T14:08:43.383Z,19.80
2018-09-24T14:11:17.975Z,19.70
2018-09-24T14:13:52.488Z,19.80
2018-09-24T14:16:26.998Z,19.70
2018-09-24T14:19:01.548Z,19.80
2018-09-24T14:21:35.975Z,19.70
2018-09-24T14:24:10.579Z,19.60
2018-09-24T14:26:44.931Z,19.60
2018-09-24T14:29:19.340Z,19.60
2018-09-24T14:31:53.722Z,19.30
2018-09-24T14:34:28.251Z,19.20
2018-09-24T14:37:02.911Z,19.10
2018-09-24T14:39:37.912Z,18.90
2018-09-24T14:42:12.767Z,18.80
2018-09-24T14:44:47.295Z,18.70
2018-09-24T14:47:21.675Z,18.60
2018-09-24T14:49:56.234Z,18.60
2018-09-24T14:52:30.539Z,18.40
2018-09-24T14:55:05.110Z,18.30
2018-09-24T14:57:39.459Z,18.30
2018-09-24T15:00:14.200Z,18.40
2018-09-24T15:02:49.491Z,18.50
2018-09-24T15:05:24.015Z,18.40
2018-09-24T15:07:58.999Z,18.30
2018-09-24T15:10:34.010Z,18.30
2018-09-24T15:13:08.423Z,18.30
2018-09-24T15:15:43.011Z,18.20
2018-09-24T15:18:17.467Z,18.10
2018-09-24T15:20:52.023Z,18.00
2018-09-24T15:23:26.467Z,18.00
2018-09-24T15:26:01.531Z,18.30
2018-09-24T15:28:35.891Z,18.40
2018-09-24T15:31:10.310Z,18.40
2018-09-24T15:33:44.718Z,18.30
2018-09-24T15:36:19.308Z,18.20
2018-09-24T15:38:53.759Z,18.20
2018-09-24T15:41:28.110Z,18.20
2018-09-24T15:44:02.658Z,18.20
2018-09-24T15:46:37.262Z,18.20
2018-09-24T15:49:11.695Z,18.30
2018-09-24T15:51:47.549Z,18.20
2018-09-24T15:54:22.217Z,18.20
2018-09-24T15:56:56.811Z,18.30
2018-09-24T15:59:34.427Z,18.30
2018-09-24T16:02:08.983Z,18.30
2018-09-24T16:04:43.431Z,18.30
2018-09-24T16:07:18.099Z,18.20
2018-09-24T16:09:52.525Z,18.20
2018-09-24T16:12:27.094Z,18.10
2018-09-24T16:15:01.574Z,18.00
2018-09-24T16:17:36.131Z,17.90
2018-09-24T16:20:10.958Z,18.00
2018-09-24T16:22:45.511Z,18.10
2018-09-24T16:25:19.766Z,18.10
2018-09-24T16:27:54.659Z,18.10
2018-09-24T16:30:28.987Z,18.20
2018-09-24T16:33:03.339Z,18.20
2018-09-24T16:35:37.787Z,18.00
2018-09-24T16:38:12.119Z,17.70
2018-09-24T16:40:46.648Z,17.70
2018-09-24T16:43:21.232Z,17.60
2018-09-24T16:45:55.811Z,17.70
2018-09-24T16:48:30.400Z,17.70
2018-09-24T16:51:04.905Z,17.80
2018-09-24T16:53:39.422Z,17.90
2018-09-24T16:56:13.995Z,17.90
2018-09-24T16:58:48.567Z,17.80
2018-09-24T17:01:23.677Z,17.80
2018-09-24T17:03:58.323Z,17.80
2018-09-24T17:06:33.006Z,17.70
2018-09-24T17:09:07.618Z,17.70
2018-09-24T17:11:42.123Z,17.70
2018-09-24T17:14:16.590Z,17.70
2018-09-24T17:16:51.195Z,17.60
2018-09-24T17:19:25.779Z,17.40
2018-09-24T17:22:00.108Z,17.50
2018-09-24T17:24:34.434Z,17.30
2018-09-24T17:27:09.192Z,17.30
2018-09-24T17:29:44.127Z,17.10
2018-09-24T17:32:18.743Z,17.10
2018-09-24T17:34:53.415Z,17.20
2018-09-24T17:37:28.229Z,17.20
2018-09-24T17:40:03.440Z,17.30
2018-09-24T17:42:38.575Z,17.30
2018-09-24T17:45:13.175Z,17.30
2018-09-24T17:47:47.827Z,17.30
2018-09-24T17:50:22.718Z,17.20
2018-09-24T17:52:57.463Z,17.00
2018-09-24T17:55:31.933Z,16.90
2018-09-24T17:58:07.142Z,17.00
2018-09-24T18:00:41.915Z,17.20
2018-09-24T18:03:16.635Z,17.10
2018-09-24T18:05:51.362Z,17.10
2018-09-24T18:08:26.048Z,17.10
2018-09-24T18:11:01.872Z,17.20
2018-09-24T18:13:37.295Z,17.10
2018-09-24T18:16:12.116Z,17.00
2018-09-24T18:18:46.885Z,16.90
2018-09-24T18:21:21.535Z,17.00
2018-09-24T18:23:55.961Z,17.10
2018-09-24T18:26:30.788Z,17.10
2018-09-24T18:29:05.944Z,16.80
2018-09-24T18:31:40.716Z,16.90
2018-09-24T18:34:16.636Z,16.90
2018-09-24T18:36:53.395Z,17.00
2018-09-24T18:39:28.784Z,16.90
2018-09-24T18:42:03.554Z,17.00
2018-09-24T18:44:38.385Z,17.00
2018-09-24T18:47:14.323Z,17.00
2018-09-24T18:49:49.076Z,17.00
2018-09-24T18:52:24.241Z,17.00
2018-09-24T18:54:59.313Z,17.00
2018-09-24T18:57:34.254Z,16.90
2018-09-24T19:00:09.648Z,16.70
2018-09-24T19:02:45.171Z,16.70
2018-09-24T19:05:20.122Z,16.60
2018-09-24T19:07:55.007Z,16.80
2018-09-24T19:10:31.195Z,16.10
2018-09-24T19:13:06.023Z,15.80
2018-09-24T19:15:40.923Z,15.70
2018-09-24T19:18:16.085Z,15.90
2018-09-24T19:20:51.165Z,16.20
2018-09-24T19:23:25.985Z,16.40
2018-09-24T19:26:01.077Z,16.40
2018-09-24T19:28:36.033Z,16.40
2018-09-24T19:31:11.281Z,16.40
2018-09-24T19:33:48.320Z,16.60
2018-09-24T19:36:23.479Z,16.60
2018-09-24T19:38:58.089Z,16.50
2018-09-24T19:41:32.925Z,16.60
2018-09-24T19:44:08.557Z,16.60
2018-09-24T19:46:43.881Z,16.60
2018-09-24T19:49:18.706Z,16.40
2018-09-24T19:51:54.043Z,16.40
2018-09-24T19:54:28.656Z,16.40
2018-09-24T19:57:03.723Z,16.30
2018-09-24T19:59:38.314Z,16.30
2018-09-24T20:02:12.699Z,16.20
2018-09-24T20:04:47.236Z,16.10
2018-09-24T20:07:22.400Z,16.10
2018-09-24T20:09:58.176Z,16.20
2018-09-24T20:12:32.818Z,16.20
2018-09-24T20:15:07.222Z,16.10
2018-09-24T20:17:41.983Z,16.20
2018-09-24T20:20:16.716Z,16.40
2018-09-24T20:22:51.526Z,16.60
2018-09-24T20:25:26.268Z,16.50
2018-09-24T20:28:00.940Z,16.60
2018-09-24T20:30:36.363Z,16.60
2018-09-24T20:33:10.767Z,16.50
2018-09-24T20:35:46.150Z,16.60
2018-09-24T20:38:20.729Z,16.70
2018-09-24T20:40:55.419Z,16.50
2018-09-24T20:43:29.812Z,16.40
2018-09-24T20:46:05.002Z,16.20
2018-09-24T20:48:39.767Z,16.30
2018-09-24T20:51:14.790Z,16.20
2018-09-24T20:53:49.743Z,16.20
2018-09-24T20:56:24.691Z,16.20
2018-09-24T20:58:59.116Z,16.30
2018-09-24T21:01:33.439Z,16.40
2018-09-24T21:04:08.419Z,16.20
2018-09-24T21:06:43.048Z,16.20
2018-09-24T21:09:17.917Z,16.30
2018-09-24T21:11:52.460Z,16.40
2018-09-24T21:14:27.319Z,16.50
2018-09-24T21:17:02.226Z,16.60
2018-09-24T21:19:36.912Z,16.60
2018-09-24T21:22:11.630Z,16.60
2018-09-24T21:24:46.438Z,16.60
2018-09-24T21:27:21.119Z,16.50
2018-09-24T21:29:55.895Z,16.30
2018-09-24T21:32:30.717Z,16.40
2018-09-24T21:35:05.251Z,16.40
2018-09-24T21:37:40.198Z,16.40
2018-09-24T21:40:14.952Z,16.30
2018-09-24T21:42:49.534Z,16.30
2018-09-24T21:45:24.377Z,16.20
2018-09-24T21:47:58.961Z,16.20
2018-09-24T21:50:33.490Z,16.20
2018-09-24T21:53:08.659Z,16.20
2018-09-24T21:55:43.115Z,16.00
2018-09-24T21:58:17.944Z,16.10
2018-09-24T22:00:52.902Z,16.10
2018-09-24T22:03:27.537Z,16.10
2018-09-24T22:06:02.194Z,16.20
2018-09-24T22:08:36.894Z,16.10
2018-09-24T22:11:11.720Z,16.00
2018-09-24T22:13:47.052Z,16.00
2018-09-24T22:16:21.888Z,15.90
2018-09-24T22:18:57.755Z,15.60
2018-09-24T22:21:32.300Z,15.60
2018-09-24T22:24:07.523Z,15.80
2018-09-24T22:26:43.403Z,15.80
2018-09-24T22:29:18.130Z,15.80
2018-09-24T22:31:52.870Z,15.80
2018-09-24T22:34:27.751Z,15.80
2018-09-24T22:37:02.251Z,15.90
2018-09-24T22:39:37.007Z,16.00
2018-09-24T22:42:11.651Z,15.90
2018-09-24T22:44:46.412Z,15.80
2018-09-24T22:47:21.115Z,15.90
2018-09-24T22:49:55.920Z,16.00
2018-09-24T22:52:30.430Z,15.90
2018-09-24T22:55:04.982Z,15.90
2018-09-24T22:57:39.687Z,15.90
2018-09-24T23:00:14.806Z,15.70
2018-09-24T23:02:49.629Z,15.70
2018-09-24T23:05:24.403Z,15.80
2018-09-24T23:07:59.550Z,15.80
2018-09-24T23:10:34.455Z,15.90
2018-09-24T23:13:09.191Z,15.90
2018-09-24T23:15:43.895Z,15.80
2018-09-24T23:18:18.490Z,15.60
2018-09-24T23:20:53.213Z,15.40
2018-09-24T23:23:27.912Z,15.50
2018-09-24T23:26:02.998Z,15.70
2018-09-24T23:28:37.456Z,15.80
2018-09-24T23:31:12.201Z,15.80
2018-09-24T23:33:46.752Z,15.70
2018-09-24T23:36:22.479Z,15.80
2018-09-24T23:38:57.187Z,15.90
2018-09-24T23:41:32.323Z,15.80
2018-09-24T23:44:06.959Z,15.90
2018-09-24T23:46:41.618Z,15.90
2018-09-24T23:49:16.416Z,15.90
2018-09-24T23:51:51.313Z,15.90
2018-09-24T23:54:25.831Z,15.80
2018-09-24T23:57:00.980Z,15.70
2018-09-24T23:59:35.640Z,15.80
